sensor_id;sensor_type;location;lat;lon;timestamp;pressure;altitude;pressure_sealevel;temperature;humidity
6218;BME280;3142;48.206;11.550;2023-03-26T00:01:59;95307.22;;;9.81;61.12
6218;BME280;3142;48.206;11.550;2023-03-26T00:04:26;95301.19;;;9.80;60.75
6218;BME280;3142;48.206;11.550;2023-03-26T00:06:52;95307.00;;;9.83;61.18
6218;BME280;3142;48.206;11.550;2023-03-26T00:09:20;95299.75;;;9.85;61.32
6218;BME280;3142;48.206;11.550;2023-03-26T00:11:46;95304.81;;;9.79;61.67
6218;BME280;3142;48.206;11.550;2023-03-26T00:14:12;95301.00;;;9.75;60.90
6218;BME280;3142;48.206;11.550;2023-03-26T00:16:43;95291.16;;;9.71;61.27
6218;BME280;3142;48.206;11.550;2023-03-26T00:19:11;95289.34;;;9.71;61.77
6218;BME280;3142;48.206;11.550;2023-03-26T00:21:38;95296.19;;;9.66;61.09
6218;BME280;3142;48.206;11.550;2023-03-26T00:24:08;95294.59;;;9.58;61.81
6218;BME280;3142;48.206;11.550;2023-03-26T00:26:36;95298.63;;;9.54;61.83
6218;BME280;3142;48.206;11.550;2023-03-26T00:29:03;95296.19;;;9.59;62.13
6218;BME280;3142;48.206;11.550;2023-03-26T00:31:30;95303.03;;;9.60;61.94
6218;BME280;3142;48.206;11.550;2023-03-26T00:33:59;95291.97;;;9.58;62.01
6218;BME280;3142;48.206;11.550;2023-03-26T00:36:28;95294.59;;;9.58;61.65
6218;BME280;3142;48.206;11.550;2023-03-26T00:38:54;95286.34;;;9.55;61.51
6218;BME280;3142;48.206;11.550;2023-03-26T00:41:22;95295.19;;;9.54;62.73
6218;BME280;3142;48.206;11.550;2023-03-26T00:43:51;95294.19;;;9.55;62.27
6218;BME280;3142;48.206;11.550;2023-03-26T00:46:20;95289.56;;;9.57;62.47
6218;BME280;3142;48.206;11.550;2023-03-26T00:48:47;95287.97;;;9.56;62.65
6218;BME280;3142;48.206;11.550;2023-03-26T00:51:17;95292.38;;;9.55;62.09
6218;BME280;3142;48.206;11.550;2023-03-26T00:53:46;95293.78;;;9.58;62.45
6218;BME280;3142;48.206;11.550;2023-03-26T00:56:13;95286.16;;;9.56;63.03
6218;BME280;3142;48.206;11.550;2023-03-26T00:58:40;95277.91;;;9.59;62.67
6218;BME280;3142;48.206;11.550;2023-03-26T01:01:09;95276.72;;;9.62;62.83
6218;BME280;3142;48.206;11.550;2023-03-26T01:03:37;95275.28;;;9.59;62.27
6218;BME280;3142;48.206;11.550;2023-03-26T01:06:05;95265.06;;;9.58;62.83
6218;BME280;3142;48.206;11.550;2023-03-26T01:08:37;95275.13;;;9.54;62.58
6218;BME280;3142;48.206;11.550;2023-03-26T01:11:07;95281.75;;;9.50;62.26
6218;BME280;3142;48.206;11.550;2023-03-26T01:13:39;95277.75;;;9.47;63.21
6218;BME280;3142;48.206;11.550;2023-03-26T01:16:13;95282.56;;;9.44;63.11
6218;BME280;3142;48.206;11.550;2023-03-26T01:18:44;95279.75;;;9.39;63.16
6218;BME280;3142;48.206;11.550;2023-03-26T01:21:13;95280.16;;;9.42;63.27
6218;BME280;3142;48.206;11.550;2023-03-26T01:23:55;95283.56;;;9.43;62.70
6218;BME280;3142;48.206;11.550;2023-03-26T01:26:33;95283.34;;;9.44;63.03
6218;BME280;3142;48.206;11.550;2023-03-26T01:29:04;95279.56;;;9.40;63.22
6218;BME280;3142;48.206;11.550;2023-03-26T01:31:43;95275.34;;;9.39;62.44
6218;BME280;3142;48.206;11.550;2023-03-26T01:34:19;95275.75;;;9.36;64.02
6218;BME280;3142;48.206;11.550;2023-03-26T01:36:57;95270.53;;;9.36;62.65
6218;BME280;3142;48.206;11.550;2023-03-26T01:39:34;95263.28;;;9.32;63.07
6218;BME280;3142;48.206;11.550;2023-03-26T01:42:07;95266.09;;;9.30;63.86
6218;BME280;3142;48.206;11.550;2023-03-26T01:44:40;95256.47;;;9.31;62.81
6218;BME280;3142;48.206;11.550;2023-03-26T01:47:09;95251.25;;;9.31;64.14
6218;BME280;3142;48.206;11.550;2023-03-26T01:49:37;95248.84;;;9.29;64.02
6218;BME280;3142;48.206;11.550;2023-03-26T01:52:09;95247.44;;;9.27;64.04
6218;BME280;3142;48.206;11.550;2023-03-26T01:54:39;95241.81;;;9.23;63.48
6218;BME280;3142;48.206;11.550;2023-03-26T01:57:10;95248.25;;;9.20;63.68
6218;BME280;3142;48.206;11.550;2023-03-26T01:59:52;95249.44;;;9.18;63.73
6218;BME280;3142;48.206;11.550;2023-03-26T02:02:29;95252.06;;;9.18;64.66
6218;BME280;3142;48.206;11.550;2023-03-26T02:05:02;95244.63;;;9.15;63.43
6218;BME280;3142;48.206;11.550;2023-03-26T02:07:35;95243.63;;;9.16;64.70
6218;BME280;3142;48.206;11.550;2023-03-26T02:10:10;95238.81;;;9.13;64.31
6218;BME280;3142;48.206;11.550;2023-03-26T02:12:39;95229.19;;;9.13;64.38
6218;BME280;3142;48.206;11.550;2023-03-26T02:15:07;95226.19;;;9.10;64.36
6218;BME280;3142;48.206;11.550;2023-03-26T02:17:34;95224.38;;;9.10;64.88
6218;BME280;3142;48.206;11.550;2023-03-26T02:20:05;95222.34;;;9.12;64.98
6218;BME280;3142;48.206;11.550;2023-03-26T02:22:32;95216.34;;;9.12;65.03
6218;BME280;3142;48.206;11.550;2023-03-26T02:25:08;95224.38;;;9.10;64.94
6218;BME280;3142;48.206;11.550;2023-03-26T02:27:35;95223.78;;;9.08;64.02
6218;BME280;3142;48.206;11.550;2023-03-26T02:30:02;95220.38;;;9.08;64.97
6218;BME280;3142;48.206;11.550;2023-03-26T02:32:28;95210.34;;;9.05;65.07
6218;BME280;3142;48.206;11.550;2023-03-26T02:34:55;95215.56;;;9.05;65.40
6218;BME280;3142;48.206;11.550;2023-03-26T02:37:21;95213.13;;;9.03;65.31
6218;BME280;3142;48.206;11.550;2023-03-26T02:39:48;95209.91;;;9.01;64.71
6218;BME280;3142;48.206;11.550;2023-03-26T02:42:15;95208.31;;;9.07;64.10
6218;BME280;3142;48.206;11.550;2023-03-26T02:44:42;95204.50;;;9.09;65.18
6218;BME280;3142;48.206;11.550;2023-03-26T02:47:08;95202.31;;;9.06;65.03
6218;BME280;3142;48.206;11.550;2023-03-26T02:49:35;95205.91;;;9.05;65.31
6218;BME280;3142;48.206;11.550;2023-03-26T02:52:01;95196.28;;;8.99;64.26
6218;BME280;3142;48.206;11.550;2023-03-26T02:54:30;95200.91;;;8.97;65.17
6218;BME280;3142;48.206;11.550;2023-03-26T02:56:57;95198.09;;;8.92;64.84
6218;BME280;3142;48.206;11.550;2023-03-26T02:59:25;95187.03;;;8.90;64.78
6218;BME280;3142;48.206;11.550;2023-03-26T03:01:52;95187.03;;;8.90;65.53
6218;BME280;3142;48.206;11.550;2023-03-26T03:04:18;95182.63;;;8.90;64.51
6218;BME280;3142;48.206;11.550;2023-03-26T03:06:45;95176.44;;;8.92;64.97
6218;BME280;3142;48.206;11.550;2023-03-26T03:09:17;95175.22;;;8.87;65.35
6218;BME280;3142;48.206;11.550;2023-03-26T03:11:44;95173.03;;;8.91;65.70
6218;BME280;3142;48.206;11.550;2023-03-26T03:14:10;95159.78;;;8.93;65.11
6218;BME280;3142;48.206;11.550;2023-03-26T03:16:38;95157.56;;;8.96;64.96
6218;BME280;3142;48.206;11.550;2023-03-26T03:19:05;95152.34;;;8.96;65.57
6218;BME280;3142;48.206;11.550;2023-03-26T03:21:31;95147.91;;;8.97;64.82
6218;BME280;3142;48.206;11.550;2023-03-26T03:23:58;95150.53;;;8.97;66.02
6218;BME280;3142;48.206;11.550;2023-03-26T03:26:24;95143.72;;;8.96;65.63
6218;BME280;3142;48.206;11.550;2023-03-26T03:28:54;95138.28;;;8.97;65.26
6218;BME280;3142;48.206;11.550;2023-03-26T03:31:22;95137.69;;;8.95;64.73
6218;BME280;3142;48.206;11.550;2023-03-26T03:33:50;95135.50;;;8.92;65.76
6218;BME280;3142;48.206;11.550;2023-03-26T03:36:18;95136.09;;;8.94;65.09
6218;BME280;3142;48.206;11.550;2023-03-26T03:38:47;95129.44;;;8.98;64.88
6218;BME280;3142;48.206;11.550;2023-03-26T03:41:13;95135.28;;;8.94;66.12
6218;BME280;3142;48.206;11.550;2023-03-26T03:43:42;95133.47;;;8.94;65.25
6218;BME280;3142;48.206;11.550;2023-03-26T03:46:09;95131.88;;;8.93;65.08
6218;BME280;3142;48.206;11.550;2023-03-26T03:48:35;95133.47;;;8.94;65.79
6218;BME280;3142;48.206;11.550;2023-03-26T03:51:05;95133.69;;;8.93;66.20
6218;BME280;3142;48.206;11.550;2023-03-26T03:53:31;95128.06;;;8.89;65.80
6218;BME280;3142;48.206;11.550;2023-03-26T03:56:01;95125.06;;;8.92;66.21
6218;BME280;3142;48.206;11.550;2023-03-26T03:58:28;95129.66;;;8.97;65.72
6218;BME280;3142;48.206;11.550;2023-03-26T04:00:55;95122.63;;;8.90;65.93
6218;BME280;3142;48.206;11.550;2023-03-26T04:03:25;95121.03;;;8.96;66.02
6218;BME280;3142;48.206;11.550;2023-03-26T04:05:53;95123.63;;;8.96;66.00
6218;BME280;3142;48.206;11.550;2023-03-26T04:08:21;95128.06;;;8.96;66.31
6218;BME280;3142;48.206;11.550;2023-03-26T04:10:49;95114.81;;;8.97;65.67
6218;BME280;3142;48.206;11.550;2023-03-26T04:13:16;95107.97;;;8.96;66.59
6218;BME280;3142;48.206;11.550;2023-03-26T04:15:43;95106.19;;;8.97;65.77
6218;BME280;3142;48.206;11.550;2023-03-26T04:18:09;95095.94;;;8.95;65.49
6218;BME280;3142;48.206;11.550;2023-03-26T04:20:36;95100.38;;;8.95;66.62
6218;BME280;3142;48.206;11.550;2023-03-26T04:23:03;95096.75;;;8.96;66.63
6218;BME280;3142;48.206;11.550;2023-03-26T04:25:31;95099.97;;;8.91;66.84
6218;BME280;3142;48.206;11.550;2023-03-26T04:27:59;95092.97;;;8.92;66.63
6218;BME280;3142;48.206;11.550;2023-03-26T04:30:31;95089.34;;;8.93;66.51
6218;BME280;3142;48.206;11.550;2023-03-26T04:32:58;95087.91;;;8.90;65.87
6218;BME280;3142;48.206;11.550;2023-03-26T04:35:30;95090.13;;;8.93;66.34
6218;BME280;3142;48.206;11.550;2023-03-26T04:37:59;95083.13;;;8.94;66.92
6218;BME280;3142;48.206;11.550;2023-03-26T04:40:26;95082.31;;;8.93;66.73
6218;BME280;3142;48.206;11.550;2023-03-26T04:42:56;95078.91;;;8.86;65.66
6218;BME280;3142;48.206;11.550;2023-03-26T04:45:24;95076.28;;;8.86;66.18
6218;BME280;3142;48.206;11.550;2023-03-26T04:47:50;95072.88;;;8.85;66.71
6218;BME280;3142;48.206;11.550;2023-03-26T04:50:17;95071.28;;;8.84;66.65
6218;BME280;3142;48.206;11.550;2023-03-26T04:52:43;95062.69;;;8.71;67.01
6218;BME280;3142;48.206;11.550;2023-03-26T04:55:18;95063.50;;;8.65;66.77
6218;BME280;3142;48.206;11.550;2023-03-26T04:57:48;95064.91;;;8.67;67.87
6218;BME280;3142;48.206;11.550;2023-03-26T05:00:18;95059.50;;;8.69;66.63
6218;BME280;3142;48.206;11.550;2023-03-26T05:02:45;95065.88;;;8.73;66.90
6218;BME280;3142;48.206;11.550;2023-03-26T05:05:14;95057.06;;;8.74;67.01
6218;BME280;3142;48.206;11.550;2023-03-26T05:07:41;95057.88;;;8.81;67.27
6218;BME280;3142;48.206;11.550;2023-03-26T05:10:11;95051.63;;;8.82;67.25
6218;BME280;3142;48.206;11.550;2023-03-26T05:12:38;95040.19;;;8.83;67.53
6218;BME280;3142;48.206;11.550;2023-03-26T05:15:06;95042.38;;;8.86;67.09
6218;BME280;3142;48.206;11.550;2023-03-26T05:17:34;95030.72;;;8.95;65.90
6218;BME280;3142;48.206;11.550;2023-03-26T05:20:06;95030.53;;;8.90;66.11
6218;BME280;3142;48.206;11.550;2023-03-26T05:22:33;95033.56;;;8.94;65.88
6218;BME280;3142;48.206;11.550;2023-03-26T05:24:59;95034.94;;;8.96;67.14
6218;BME280;3142;48.206;11.550;2023-03-26T05:27:27;95029.50;;;8.98;67.19
6218;BME280;3142;48.206;11.550;2023-03-26T05:29:59;95034.09;;;9.02;65.92
6218;BME280;3142;48.206;11.550;2023-03-26T05:32:25;95030.47;;;9.03;65.55
6218;BME280;3142;48.206;11.550;2023-03-26T05:34:53;95021.25;;;9.07;66.34
6218;BME280;3142;48.206;11.550;2023-03-26T05:37:20;95018.84;;;9.06;66.74
6218;BME280;3142;48.206;11.550;2023-03-26T05:39:51;95018.84;;;9.06;66.84
6218;BME280;3142;48.206;11.550;2023-03-26T05:42:18;95014.22;;;9.08;66.51
6218;BME280;3142;48.206;11.550;2023-03-26T05:44:44;95015.81;;;9.09;66.63
6218;BME280;3142;48.206;11.550;2023-03-26T05:47:11;95013.81;;;9.11;66.55
6218;BME280;3142;48.206;11.550;2023-03-26T05:49:37;95006.94;;;9.16;66.29
6218;BME280;3142;48.206;11.550;2023-03-26T05:52:05;94992.78;;;9.06;65.03
6218;BME280;3142;48.206;11.550;2023-03-26T05:54:32;94996.19;;;9.06;65.88
6218;BME280;3142;48.206;11.550;2023-03-26T05:56:58;94995.19;;;9.01;65.57
6218;BME280;3142;48.206;11.550;2023-03-26T05:59:25;94993.34;;;9.08;65.49
6218;BME280;3142;48.206;11.550;2023-03-26T06:01:51;94987.09;;;9.15;65.32
6218;BME280;3142;48.206;11.550;2023-03-26T06:04:19;94984.06;;;9.18;65.77
6218;BME280;3142;48.206;11.550;2023-03-26T06:06:45;94975.41;;;9.18;65.72
6218;BME280;3142;48.206;11.550;2023-03-26T06:09:13;94978.03;;;9.18;65.16
6218;BME280;3142;48.206;11.550;2023-03-26T06:11:41;94982.06;;;9.14;65.80
6218;BME280;3142;48.206;11.550;2023-03-26T06:14:07;94969.81;;;9.14;65.86
6218;BME280;3142;48.206;11.550;2023-03-26T06:16:33;94962.59;;;9.16;64.54
6218;BME280;3142;48.206;11.550;2023-03-26T06:19:00;94965.19;;;9.16;65.75
6218;BME280;3142;48.206;11.550;2023-03-26T06:21:27;94967.41;;;9.19;65.85
6218;BME280;3142;48.206;11.550;2023-03-26T06:23:54;94966.19;;;9.22;64.50
6218;BME280;3142;48.206;11.550;2023-03-26T06:26:22;94966.94;;;9.29;64.57
6218;BME280;3142;48.206;11.550;2023-03-26T06:28:48;94960.09;;;9.35;65.19
6218;BME280;3142;48.206;11.550;2023-03-26T06:31:15;94954.22;;;9.39;65.20
6218;BME280;3142;48.206;11.550;2023-03-26T06:33:43;94953.81;;;9.42;64.85
6218;BME280;3142;48.206;11.550;2023-03-26T06:36:10;94955.19;;;9.45;64.29
6218;BME280;3142;48.206;11.550;2023-03-26T06:38:36;94955.97;;;9.52;63.99
6218;BME280;3142;48.206;11.550;2023-03-26T06:41:04;94954.94;;;9.53;64.46
6218;BME280;3142;48.206;11.550;2023-03-26T06:43:32;94950.72;;;9.52;64.30
6218;BME280;3142;48.206;11.550;2023-03-26T06:45:59;94947.69;;;9.55;64.00
6218;BME280;3142;48.206;11.550;2023-03-26T06:48:26;94947.25;;;9.58;63.73
6218;BME280;3142;48.206;11.550;2023-03-26T06:50:53;94948.88;;;9.59;63.69
6218;BME280;3142;48.206;11.550;2023-03-26T06:53:19;94942.44;;;9.62;64.02
6218;BME280;3142;48.206;11.550;2023-03-26T06:55:46;94948.28;;;9.57;63.63
6218;BME280;3142;48.206;11.550;2023-03-26T06:58:12;94942.81;;;9.65;62.13
6218;BME280;3142;48.206;11.550;2023-03-26T07:00:40;94938.38;;;9.66;62.16
6218;BME280;3142;48.206;11.550;2023-03-26T07:03:07;94939.97;;;9.67;61.48
6218;BME280;3142;48.206;11.550;2023-03-26T07:05:35;94929.09;;;9.70;61.14
6218;BME280;3142;48.206;11.550;2023-03-26T07:08:01;94935.31;;;9.75;60.51
6218;BME280;3142;48.206;11.550;2023-03-26T07:10:28;94919.19;;;9.78;59.89
6218;BME280;3142;48.206;11.550;2023-03-26T07:12:55;94921.38;;;9.82;60.29
6218;BME280;3142;48.206;11.550;2023-03-26T07:15:22;94923.63;;;9.78;61.09
6218;BME280;3142;48.206;11.550;2023-03-26T07:17:50;94921.00;;;9.78;60.53
6218;BME280;3142;48.206;11.550;2023-03-26T07:20:16;94915.56;;;9.79;59.93
6218;BME280;3142;48.206;11.550;2023-03-26T07:22:43;94912.59;;;9.76;60.04
6218;BME280;3142;48.206;11.550;2023-03-26T07:25:13;94907.38;;;9.76;61.25
6218;BME280;3142;48.206;11.550;2023-03-26T07:27:45;94907.16;;;9.77;60.83
6218;BME280;3142;48.206;11.550;2023-03-26T07:30:19;94908.75;;;9.78;61.07
6218;BME280;3142;48.206;11.550;2023-03-26T07:32:54;94897.50;;;9.78;62.06
6218;BME280;3142;48.206;11.550;2023-03-26T07:35:24;94890.09;;;9.75;62.41
6218;BME280;3142;48.206;11.550;2023-03-26T07:38:01;94891.47;;;9.77;63.46
6218;BME280;3142;48.206;11.550;2023-03-26T07:40:50;94884.91;;;9.68;63.20
6218;BME280;3142;48.206;11.550;2023-03-26T07:43:26;94875.13;;;9.64;63.71
6218;BME280;3142;48.206;11.550;2023-03-26T07:45:58;94865.03;;;9.67;63.30
6218;BME280;3142;48.206;11.550;2023-03-26T07:48:32;94864.47;;;9.65;64.54
6218;BME280;3142;48.206;11.550;2023-03-26T07:51:02;94862.44;;;9.67;64.20
6218;BME280;3142;48.206;11.550;2023-03-26T07:53:29;94857.63;;;9.64;65.40
6218;BME280;3142;48.206;11.550;2023-03-26T07:56:00;94840.38;;;9.63;65.72
6218;BME280;3142;48.206;11.550;2023-03-26T07:58:38;94823.25;;;9.67;66.23
6218;BME280;3142;48.206;11.550;2023-03-26T08:01:13;94809.75;;;9.70;66.27
6218;BME280;3142;48.206;11.550;2023-03-26T08:03:55;94803.50;;;9.71;68.17
6218;BME280;3142;48.206;11.550;2023-03-26T08:06:31;94800.50;;;9.74;68.46
6218;BME280;3142;48.206;11.550;2023-03-26T08:09:05;94795.63;;;9.78;69.10
6218;BME280;3142;48.206;11.550;2023-03-26T08:11:39;94801.06;;;9.76;69.31
6218;BME280;3142;48.206;11.550;2023-03-26T08:14:23;94795.97;;;9.82;69.59
6218;BME280;3142;48.206;11.550;2023-03-26T08:16:53;94790.91;;;9.87;69.03
6218;BME280;3142;48.206;11.550;2023-03-26T08:19:34;94791.06;;;9.92;68.87
6218;BME280;3142;48.206;11.550;2023-03-26T08:22:10;94789.47;;;9.91;69.05
6218;BME280;3142;48.206;11.550;2023-03-26T08:24:43;94782.66;;;9.90;69.18
6218;BME280;3142;48.206;11.550;2023-03-26T08:27:20;94785.38;;;9.95;68.38
6218;BME280;3142;48.206;11.550;2023-03-26T08:29:52;94769.28;;;9.98;68.15
6218;BME280;3142;48.206;11.550;2023-03-26T08:32:22;94767.03;;;10.01;67.65
6218;BME280;3142;48.206;11.550;2023-03-26T08:34:50;94761.16;;;10.06;67.81
6218;BME280;3142;48.206;11.550;2023-03-26T08:37:17;94755.03;;;10.12;68.08
6218;BME280;3142;48.206;11.550;2023-03-26T08:39:44;94753.81;;;10.15;68.18
6218;BME280;3142;48.206;11.550;2023-03-26T08:45:35;94750.91;;;10.23;67.14
6218;BME280;3142;48.206;11.550;2023-03-26T08:48:25;94754.16;;;10.18;66.67
6218;BME280;3142;48.206;11.550;2023-03-26T08:56:50;94762.16;;;10.23;65.44
6218;BME280;3142;48.206;11.550;2023-03-26T08:59:36;94759.69;;;10.10;65.01
6218;BME280;3142;48.206;11.550;2023-03-26T09:02:31;94748.31;;;9.86;65.86
6218;BME280;3142;48.206;11.550;2023-03-26T09:08:38;94755.94;;;9.51;67.56
6218;BME280;3142;48.206;11.550;2023-03-26T09:14:46;94753.50;;;9.31;69.73
6218;BME280;3142;48.206;11.550;2023-03-26T09:18:02;94752.56;;;9.26;69.88
6218;BME280;3142;48.206;11.550;2023-03-26T09:20:48;94754.00;;;9.22;69.40
6218;BME280;3142;48.206;11.550;2023-03-26T09:23:43;94747.41;;;9.19;70.78
6218;BME280;3142;48.206;11.550;2023-03-26T09:26:23;94737.16;;;9.17;70.00
6218;BME280;3142;48.206;11.550;2023-03-26T09:29:37;94724.31;;;9.16;72.54
6218;BME280;3142;48.206;11.550;2023-03-26T09:35:42;94715.44;;;9.24;73.33
6218;BME280;3142;48.206;11.550;2023-03-26T09:38:24;94714.69;;;9.16;72.82
6218;BME280;3142;48.206;11.550;2023-03-26T09:41:03;94726.13;;;9.15;71.88
6218;BME280;3142;48.206;11.550;2023-03-26T09:43:55;94721.81;;;9.28;72.75
6218;BME280;3142;48.206;11.550;2023-03-26T09:46:35;94740.63;;;9.36;72.73
6218;BME280;3142;48.206;11.550;2023-03-26T09:49:14;94736.97;;;9.37;72.71
6218;BME280;3142;48.206;11.550;2023-03-26T09:54:42;94715.22;;;9.43;71.82
6218;BME280;3142;48.206;11.550;2023-03-26T09:57:23;94712.84;;;9.42;72.82
6218;BME280;3142;48.206;11.550;2023-03-26T10:00:12;94712.41;;;9.45;72.26
6218;BME280;3142;48.206;11.550;2023-03-26T10:02:51;94709.16;;;9.49;72.63
6218;BME280;3142;48.206;11.550;2023-03-26T10:05:29;94708.94;;;9.51;73.35
6218;BME280;3142;48.206;11.550;2023-03-26T10:08:26;94691.16;;;9.60;72.06
6218;BME280;3142;48.206;11.550;2023-03-26T10:11:01;94693.34;;;9.63;73.46
6218;BME280;3142;48.206;11.550;2023-03-26T10:13:36;94674.84;;;9.64;73.11
6218;BME280;3142;48.206;11.550;2023-03-26T10:16:14;94685.88;;;9.48;73.07
6218;BME280;3142;48.206;11.550;2023-03-26T10:18:51;94678.97;;;9.54;73.63
6218;BME280;3142;48.206;11.550;2023-03-26T10:21:28;94681.00;;;9.52;74.01
6218;BME280;3142;48.206;11.550;2023-03-26T10:24:10;94701.91;;;9.52;74.42
6218;BME280;3142;48.206;11.550;2023-03-26T10:26:47;94700.16;;;9.64;74.29
6218;BME280;3142;48.206;11.550;2023-03-26T10:29:29;94681.72;;;9.59;73.16
6218;BME280;3142;48.206;11.550;2023-03-26T10:32:12;94677.59;;;9.51;72.77
6218;BME280;3142;48.206;11.550;2023-03-26T10:34:48;94676.44;;;9.47;73.12
6218;BME280;3142;48.206;11.550;2023-03-26T10:37:22;94691.16;;;9.41;73.52
6218;BME280;3142;48.206;11.550;2023-03-26T10:40:10;94697.53;;;9.45;73.15
6218;BME280;3142;48.206;11.550;2023-03-26T10:43:28;94689.84;;;9.50;73.09
6218;BME280;3142;48.206;11.550;2023-03-26T10:46:17;94698.63;;;9.56;72.92
6218;BME280;3142;48.206;11.550;2023-03-26T10:48:58;94701.63;;;9.60;72.72
6218;BME280;3142;48.206;11.550;2023-03-26T10:51:46;94706.00;;;9.59;73.03
6218;BME280;3142;48.206;11.550;2023-03-26T10:54:24;94709.94;;;9.50;74.99
6218;BME280;3142;48.206;11.550;2023-03-26T10:56:54;94705.16;;;9.47;75.59
6218;BME280;3142;48.206;11.550;2023-03-26T10:59:21;94709.78;;;9.45;75.94
6218;BME280;3142;48.206;11.550;2023-03-26T11:01:55;94697.16;;;9.42;76.43
6218;BME280;3142;48.206;11.550;2023-03-26T11:04:35;94693.75;;;9.41;77.24
6218;BME280;3142;48.206;11.550;2023-03-26T11:07:12;94691.50;;;9.45;78.17
6218;BME280;3142;48.206;11.550;2023-03-26T11:09:45;94669.75;;;9.51;76.82
6218;BME280;3142;48.206;11.550;2023-03-26T11:12:21;94667.28;;;9.56;76.93
6218;BME280;3142;48.206;11.550;2023-03-26T11:14:57;94652.00;;;9.60;77.26
6218;BME280;3142;48.206;11.550;2023-03-26T11:17:37;94651.47;;;9.69;77.38
6218;BME280;3142;48.206;11.550;2023-03-26T11:20:09;94650.09;;;9.67;77.54
6218;BME280;3142;48.206;11.550;2023-03-26T11:22:47;94656.91;;;9.68;76.63
6218;BME280;3142;48.206;11.550;2023-03-26T11:25:33;94656.25;;;9.72;75.90
6218;BME280;3142;48.206;11.550;2023-03-26T11:28:10;94659.00;;;9.77;75.25
6218;BME280;3142;48.206;11.550;2023-03-26T11:30:45;94658.22;;;9.77;75.32
6218;BME280;3142;48.206;11.550;2023-03-26T11:33:17;94651.44;;;9.88;75.70
6218;BME280;3142;48.206;11.550;2023-03-26T11:35:48;94648.63;;;9.89;76.12
6218;BME280;3142;48.206;11.550;2023-03-26T11:38:20;94648.06;;;9.99;75.82
6218;BME280;3142;48.206;11.550;2023-03-26T11:40:49;94655.03;;;10.05;75.15
6218;BME280;3142;48.206;11.550;2023-03-26T11:43:21;94658.28;;;10.00;74.23
6218;BME280;3142;48.206;11.550;2023-03-26T11:45:49;94671.22;;;9.95;74.06
6218;BME280;3142;48.206;11.550;2023-03-26T11:48:22;94656.44;;;9.89;72.99
6218;BME280;3142;48.206;11.550;2023-03-26T11:50:54;94655.91;;;9.99;73.89
6218;BME280;3142;48.206;11.550;2023-03-26T11:53:26;94652.31;;;10.12;72.73
6218;BME280;3142;48.206;11.550;2023-03-26T11:55:58;94643.28;;;10.26;71.17
6218;BME280;3142;48.206;11.550;2023-03-26T11:58:31;94647.88;;;10.30;70.45
6218;BME280;3142;48.206;11.550;2023-03-26T12:01:02;94632.53;;;10.34;71.17
6218;BME280;3142;48.206;11.550;2023-03-26T12:03:31;94638.78;;;10.33;72.04
6218;BME280;3142;48.206;11.550;2023-03-26T12:05:58;94637.25;;;10.25;71.96
6218;BME280;3142;48.206;11.550;2023-03-26T12:08:30;94635.44;;;10.26;71.81
6218;BME280;3142;48.206;11.550;2023-03-26T12:11:01;94627.63;;;10.37;71.86
6218;BME280;3142;48.206;11.550;2023-03-26T12:13:33;94632.44;;;10.64;71.88
6218;BME280;3142;48.206;11.550;2023-03-26T12:16:07;94627.78;;;11.01;71.39
6218;BME280;3142;48.206;11.550;2023-03-26T12:18:36;94638.09;;;11.43;70.11
6218;BME280;3142;48.206;11.550;2023-03-26T12:21:06;94629.31;;;11.49;69.34
6218;BME280;3142;48.206;11.550;2023-03-26T12:23:36;94620.22;;;11.40;69.04
6218;BME280;3142;48.206;11.550;2023-03-26T12:26:10;94619.88;;;11.36;68.29
6218;BME280;3142;48.206;11.550;2023-03-26T12:28:43;94610.34;;;11.18;68.08
6218;BME280;3142;48.206;11.550;2023-03-26T12:31:11;94608.78;;;11.06;68.56
6218;BME280;3142;48.206;11.550;2023-03-26T12:33:45;94622.44;;;11.08;68.87
6218;BME280;3142;48.206;11.550;2023-03-26T12:36:19;94630.50;;;10.94;69.10
6218;BME280;3142;48.206;11.550;2023-03-26T12:38:47;94599.72;;;10.85;69.17
6218;BME280;3142;48.206;11.550;2023-03-26T12:41:15;94605.84;;;10.79;68.71
6218;BME280;3142;48.206;11.550;2023-03-26T12:43:44;94591.28;;;10.71;69.02
6218;BME280;3142;48.206;11.550;2023-03-26T12:46:25;94605.41;;;10.70;69.59
6218;BME280;3142;48.206;11.550;2023-03-26T12:48:56;94617.22;;;10.61;70.18
6218;BME280;3142;48.206;11.550;2023-03-26T12:51:38;94608.09;;;10.63;70.06
6218;BME280;3142;48.206;11.550;2023-03-26T12:57:12;94603.56;;;10.59;70.31
6218;BME280;3142;48.206;11.550;2023-03-26T12:59:50;94602.09;;;10.63;70.65
6218;BME280;3142;48.206;11.550;2023-03-26T13:02:33;94595.38;;;10.67;70.74
6218;BME280;3142;48.206;11.550;2023-03-26T13:05:19;94607.66;;;10.66;69.92
6218;BME280;3142;48.206;11.550;2023-03-26T13:08:02;94604.47;;;10.53;70.50
6218;BME280;3142;48.206;11.550;2023-03-26T13:10:49;94594.78;;;10.53;70.58
6218;BME280;3142;48.206;11.550;2023-03-26T13:13:25;94596.38;;;10.54;70.76
6218;BME280;3142;48.206;11.550;2023-03-26T13:15:58;94590.94;;;10.56;71.01
6218;BME280;3142;48.206;11.550;2023-03-26T13:18:44;94569.81;;;10.57;70.53
6218;BME280;3142;48.206;11.550;2023-03-26T13:21:18;94572.50;;;10.62;71.06
6218;BME280;3142;48.206;11.550;2023-03-26T13:23:53;94577.97;;;10.61;70.71
6218;BME280;3142;48.206;11.550;2023-03-26T13:26:35;94580.59;;;10.61;71.24
6218;BME280;3142;48.206;11.550;2023-03-26T13:29:08;94582.53;;;10.65;70.99
6218;BME280;3142;48.206;11.550;2023-03-26T13:31:43;94577.06;;;10.67;71.12
6218;BME280;3142;48.206;11.550;2023-03-26T13:34:19;94586.84;;;10.72;71.35
6218;BME280;3142;48.206;11.550;2023-03-26T13:37:01;94580.25;;;10.57;70.54
6218;BME280;3142;48.206;11.550;2023-03-26T13:39:36;94587.81;;;10.24;68.63
6218;BME280;3142;48.206;11.550;2023-03-26T13:42:25;94583.44;;;10.06;67.97
6218;BME280;3142;48.206;11.550;2023-03-26T13:45:02;94587.16;;;9.98;67.79
6218;BME280;3142;48.206;11.550;2023-03-26T13:47:32;94568.84;;;9.87;66.53
6218;BME280;3142;48.206;11.550;2023-03-26T13:50:02;94565.19;;;9.76;67.63
6218;BME280;3142;48.206;11.550;2023-03-26T13:52:37;94548.97;;;9.74;67.63
6218;BME280;3142;48.206;11.550;2023-03-26T13:55:18;94578.31;;;9.88;67.40
6218;BME280;3142;48.206;11.550;2023-03-26T13:57:51;94561.91;;;9.80;67.60
6218;BME280;3142;48.206;11.550;2023-03-26T14:00:21;94555.38;;;9.90;67.62
6218;BME280;3142;48.206;11.550;2023-03-26T14:02:55;94550.97;;;10.02;67.62
6218;BME280;3142;48.206;11.550;2023-03-26T14:05:26;94591.28;;;10.06;66.86
6218;BME280;3142;48.206;11.550;2023-03-26T14:07:59;94598.56;;;10.04;67.76
6218;BME280;3142;48.206;11.550;2023-03-26T14:10:29;94589.19;;;9.85;66.99
6218;BME280;3142;48.206;11.550;2023-03-26T14:13:01;94573.56;;;9.66;67.50